EFHK Airport Information

Runway Information
Runway 04L Length 10039 ft width 197 ft
Elevation 133 ft Threshold 0 ft Heading 48
Runway 22R Length 10039 ft Width 197 ft
Elevation 178 ft Threshold 196 ft Heading 228
Runway 04R Length 11286 ft width 197 ft
Elevation 150 ft Threshold 787 ft Heading 48
Runway 22L Length 11286 ft Width 197 ft
Elevation 147 ft Threshold 0 ft Heading 228
Runway 15 Length 9518 ft width 197 ft
Elevation 162 ft Threshold 0 ft Heading 154
Runway 33 Length 9518 ft Width 197 ft
Elevation 146 ft Threshold 0 ft Heading 334
Airport Frequencies
Type APP Name APP Frequency 119.1 MHZ
Type APP Name Frequency 129.85 MHZ
Type ATIS Name HEL VOR Frequency 114.2 MHZ
Type ATIS Name Frequency 135.075 MHZ
Type DEL Name Frequency 118.125 MHZ
Type GND Name GND Frequency 121.8 MHZ
Type PMSV Name PMSV METRO Frequency 125.1 MHZ
Type RMP Name RMP Frequency 121.65 MHZ
Type TWR Name 22L/04R an Frequency 118.6 MHZ
Type TWR Name 22R/04L Frequency 118.85 MHZ
Airport Navaids
Type NDB Name Espoo Frequency 381 KHZ
Type VOR-DME Name Helsinki Frequency 114200 KHZ
Type NDB Name Korso Frequency 322 KHZ
Airport Weather Information & NOTAM
ADDS - METARS form results

(0204 UTC 22 January 2019)
Data provider http://aviationweather.gov/metar/data/
 
METAR text: EFHK 220150Z VRB02KT CAVOK M26/M28 Q1017 NOSIG
Conditions at: EFHK (HELSINKI/VANTAA , FI) observed 0150 UTC 22 January 2019
Temperature: -26.0°C (-15°F)
Dewpoint: -28.0°C (-18°F) [RH = 83%]
Pressure (altimeter): 30.03 inches Hg (1017.0 mb)
Winds: variable direction winds at 2 MPH (2 knots; 1.0 m/s)
Visibility: 6 or more miles (10+ km)
Ceiling: ceiling and visibility are OK
Clouds: unknown
Weather: no significant weather observed at this time

METAR text: EFHK 220120Z VRB01KT CAVOK M27/M29 Q1017 NOSIG
Conditions at: EFHK (HELSINKI/VANTAA , FI) observed 0120 UTC 22 January 2019
Temperature: -27.0°C (-17°F)
Dewpoint: -29.0°C (-20°F) [RH = 83%]
Pressure (altimeter): 30.03 inches Hg (1017.0 mb)
Winds: variable direction winds at 1 MPH (1 knots; 0.5 m/s)
Visibility: 6 or more miles (10+ km)
Ceiling: ceiling and visibility are OK
Clouds: unknown
Weather: no significant weather observed at this time

Forecast for: EFHK (HELSINKI/VANTAA , FI)
Text: TAF EFHK 212328Z 2200/2224 VRB02KT CAVOK
Forecast period: 0000 UTC 22 January 2019 to 0000 UTC 23 January 2019
Forecast type: FROM: standard forecast or significant change
Winds: variable direction winds at 2 MPH (2 knots; 1.0 m/s)
Visibility: 6 or more miles 10+ km)
Ceiling: unknown
Clouds: missing
Weather: NSW  (no significant weather)
Text: PROB30 2216/2224 5000 BR BKN005
Forecast period: 1600 UTC 22 January 2019 to 0000 UTC 23 January 2019
Forecast type: PROBABLE: 30 percent likelihood of the following during this time
Visibility: 3 miles (5 km)
Ceiling: 500 feet AGL
Clouds: broken clouds at 500 feet AGL
Weather: BR  (mist)